sensor_id;sensor_type;location;lat;lon;timestamp;P1;durP1;ratioP1;P2;durP2;ratioP2
29824;SDS011;16713;52.916;12.834;2023-08-08T00:01:10;5.65;;;2.45;;
29824;SDS011;16713;52.916;12.834;2023-08-08T00:03:36;6.15;;;2.50;;
29824;SDS011;16713;52.916;12.834;2023-08-08T00:06:03;6.03;;;2.38;;
29824;SDS011;16713;52.916;12.834;2023-08-08T00:08:29;3.75;;;1.80;;
29824;SDS011;16713;52.916;12.834;2023-08-08T00:10:55;6.20;;;2.13;;
29824;SDS011;16713;52.916;12.834;2023-08-08T00:13:22;6.30;;;2.38;;
29824;SDS011;16713;52.916;12.834;2023-08-08T00:15:49;9.05;;;2.55;;
29824;SDS011;16713;52.916;12.834;2023-08-08T00:18:15;8.95;;;2.25;;
29824;SDS011;16713;52.916;12.834;2023-08-08T00:20:42;7.05;;;2.13;;
29824;SDS011;16713;52.916;12.834;2023-08-08T00:23:08;10.60;;;2.55;;
29824;SDS011;16713;52.916;12.834;2023-08-08T00:25:35;10.18;;;2.15;;
29824;SDS011;16713;52.916;12.834;2023-08-08T00:28:02;3.85;;;2.05;;
29824;SDS011;16713;52.916;12.834;2023-08-08T00:30:29;7.32;;;3.17;;
29824;SDS011;16713;52.916;12.834;2023-08-08T00:32:55;5.80;;;2.10;;
29824;SDS011;16713;52.916;12.834;2023-08-08T00:35:22;7.20;;;2.10;;
29824;SDS011;16713;52.916;12.834;2023-08-08T00:37:48;4.32;;;2.05;;
29824;SDS011;16713;52.916;12.834;2023-08-08T00:40:15;6.72;;;2.20;;
29824;SDS011;16713;52.916;12.834;2023-08-08T00:42:41;4.70;;;2.35;;
29824;SDS011;16713;52.916;12.834;2023-08-08T00:45:08;3.20;;;2.03;;
29824;SDS011;16713;52.916;12.834;2023-08-08T00:47:34;6.28;;;1.90;;
29824;SDS011;16713;52.916;12.834;2023-08-08T00:50:02;4.90;;;2.20;;
29824;SDS011;16713;52.916;12.834;2023-08-08T00:52:29;5.95;;;2.00;;
29824;SDS011;16713;52.916;12.834;2023-08-08T00:54:57;6.60;;;2.33;;
29824;SDS011;16713;52.916;12.834;2023-08-08T00:57:24;7.57;;;1.83;;
29824;SDS011;16713;52.916;12.834;2023-08-08T00:59:50;3.00;;;2.05;;
29824;SDS011;16713;52.916;12.834;2023-08-08T01:02:17;5.45;;;1.80;;
29824;SDS011;16713;52.916;12.834;2023-08-08T01:04:44;6.07;;;2.50;;
29824;SDS011;16713;52.916;12.834;2023-08-08T01:09:59;3.80;;;1.85;;
29824;SDS011;16713;52.916;12.834;2023-08-08T01:12:46;6.68;;;1.90;;
29824;SDS011;16713;52.916;12.834;2023-08-08T01:15:16;5.85;;;1.77;;
29824;SDS011;16713;52.916;12.834;2023-08-08T01:17:44;5.25;;;1.90;;
29824;SDS011;16713;52.916;12.834;2023-08-08T01:20:13;7.63;;;1.98;;
29824;SDS011;16713;52.916;12.834;2023-08-08T01:22:45;4.85;;;1.88;;
29824;SDS011;16713;52.916;12.834;2023-08-08T01:25:33;5.55;;;2.13;;
29824;SDS011;16713;52.916;12.834;2023-08-08T01:28:01;9.07;;;2.25;;
29824;SDS011;16713;52.916;12.834;2023-08-08T01:30:27;3.78;;;1.77;;
29824;SDS011;16713;52.916;12.834;2023-08-08T01:32:54;5.40;;;2.15;;
29824;SDS011;16713;52.916;12.834;2023-08-08T01:35:20;3.08;;;1.98;;
29824;SDS011;16713;52.916;12.834;2023-08-08T01:37:52;3.88;;;1.67;;
29824;SDS011;16713;52.916;12.834;2023-08-08T01:40:22;7.90;;;2.28;;
29824;SDS011;16713;52.916;12.834;2023-08-08T01:42:49;5.20;;;1.65;;
29824;SDS011;16713;52.916;12.834;2023-08-08T01:45:16;3.17;;;1.85;;
29824;SDS011;16713;52.916;12.834;2023-08-08T01:47:49;5.18;;;1.70;;
29824;SDS011;16713;52.916;12.834;2023-08-08T01:50:17;6.57;;;2.20;;
29824;SDS011;16713;52.916;12.834;2023-08-08T01:52:43;4.80;;;1.73;;
29824;SDS011;16713;52.916;12.834;2023-08-08T01:55:10;8.82;;;1.90;;
29824;SDS011;16713;52.916;12.834;2023-08-08T01:57:37;4.35;;;1.95;;
29824;SDS011;16713;52.916;12.834;2023-08-08T02:00:04;2.72;;;1.42;;
29824;SDS011;16713;52.916;12.834;2023-08-08T02:02:32;5.10;;;1.77;;
29824;SDS011;16713;52.916;12.834;2023-08-08T02:04:58;7.00;;;1.70;;
29824;SDS011;16713;52.916;12.834;2023-08-08T02:07:25;4.40;;;1.70;;
29824;SDS011;16713;52.916;12.834;2023-08-08T02:09:51;4.68;;;1.70;;
29824;SDS011;16713;52.916;12.834;2023-08-08T02:12:18;3.78;;;1.80;;
29824;SDS011;16713;52.916;12.834;2023-08-08T02:14:44;6.30;;;1.85;;
29824;SDS011;16713;52.916;12.834;2023-08-08T02:17:10;6.15;;;1.80;;
29824;SDS011;16713;52.916;12.834;2023-08-08T02:19:37;5.13;;;1.52;;
29824;SDS011;16713;52.916;12.834;2023-08-08T02:22:04;3.75;;;2.13;;
29824;SDS011;16713;52.916;12.834;2023-08-08T02:24:30;7.13;;;1.90;;
29824;SDS011;16713;52.916;12.834;2023-08-08T02:26:56;3.97;;;1.70;;
29824;SDS011;16713;52.916;12.834;2023-08-08T02:29:23;8.80;;;2.30;;
29824;SDS011;16713;52.916;12.834;2023-08-08T02:31:50;4.53;;;1.88;;
29824;SDS011;16713;52.916;12.834;2023-08-08T02:34:16;5.07;;;1.85;;
29824;SDS011;16713;52.916;12.834;2023-08-08T02:36:43;4.72;;;1.55;;
29824;SDS011;16713;52.916;12.834;2023-08-08T02:39:09;5.95;;;2.60;;
29824;SDS011;16713;52.916;12.834;2023-08-08T02:41:35;4.15;;;2.13;;
29824;SDS011;16713;52.916;12.834;2023-08-08T02:44:02;5.50;;;2.10;;
29824;SDS011;16713;52.916;12.834;2023-08-08T02:46:28;6.05;;;2.13;;
29824;SDS011;16713;52.916;12.834;2023-08-08T02:48:55;5.22;;;3.25;;
29824;SDS011;16713;52.916;12.834;2023-08-08T02:51:21;7.28;;;2.10;;
29824;SDS011;16713;52.916;12.834;2023-08-08T02:53:48;3.88;;;1.83;;
29824;SDS011;16713;52.916;12.834;2023-08-08T02:56:14;5.07;;;2.08;;
29824;SDS011;16713;52.916;12.834;2023-08-08T02:58:41;4.18;;;2.42;;
29824;SDS011;16713;52.916;12.834;2023-08-08T03:01:07;5.93;;;2.00;;
29824;SDS011;16713;52.916;12.834;2023-08-08T03:03:34;5.35;;;1.90;;
29824;SDS011;16713;52.916;12.834;2023-08-08T03:06:01;3.20;;;2.10;;
29824;SDS011;16713;52.916;12.834;2023-08-08T03:08:28;3.30;;;2.05;;
29824;SDS011;16713;52.916;12.834;2023-08-08T03:10:54;6.47;;;2.10;;
29824;SDS011;16713;52.916;12.834;2023-08-08T03:13:21;6.25;;;2.33;;
29824;SDS011;16713;52.916;12.834;2023-08-08T03:15:49;7.22;;;2.17;;
29824;SDS011;16713;52.916;12.834;2023-08-08T03:18:15;3.88;;;1.73;;
29824;SDS011;16713;52.916;12.834;2023-08-08T03:20:42;3.47;;;2.13;;
29824;SDS011;16713;52.916;12.834;2023-08-08T03:23:08;3.78;;;2.17;;
29824;SDS011;16713;52.916;12.834;2023-08-08T03:25:35;5.93;;;2.10;;
29824;SDS011;16713;52.916;12.834;2023-08-08T03:28:01;7.10;;;2.28;;
29824;SDS011;16713;52.916;12.834;2023-08-08T03:30:28;3.97;;;2.13;;
29824;SDS011;16713;52.916;12.834;2023-08-08T03:32:54;5.85;;;2.53;;
29824;SDS011;16713;52.916;12.834;2023-08-08T03:35:21;5.68;;;2.47;;
29824;SDS011;16713;52.916;12.834;2023-08-08T03:37:47;4.93;;;1.80;;
29824;SDS011;16713;52.916;12.834;2023-08-08T03:40:14;6.20;;;1.90;;
29824;SDS011;16713;52.916;12.834;2023-08-08T03:42:41;6.75;;;1.90;;
29824;SDS011;16713;52.916;12.834;2023-08-08T03:45:07;3.75;;;2.10;;
29824;SDS011;16713;52.916;12.834;2023-08-08T03:47:34;3.58;;;1.98;;
29824;SDS011;16713;52.916;12.834;2023-08-08T03:50:01;6.63;;;3.25;;
29824;SDS011;16713;52.916;12.834;2023-08-08T03:52:28;3.92;;;2.08;;
29824;SDS011;16713;52.916;12.834;2023-08-08T03:54:54;6.72;;;2.20;;
29824;SDS011;16713;52.916;12.834;2023-08-08T03:57:21;4.95;;;2.47;;
29824;SDS011;16713;52.916;12.834;2023-08-08T03:59:47;4.25;;;1.88;;
29824;SDS011;16713;52.916;12.834;2023-08-08T04:02:13;4.18;;;2.13;;
29824;SDS011;16713;52.916;12.834;2023-08-08T04:04:40;4.35;;;2.08;;
29824;SDS011;16713;52.916;12.834;2023-08-08T04:07:06;3.67;;;2.10;;
29824;SDS011;16713;52.916;12.834;2023-08-08T04:09:33;6.35;;;1.75;;
29824;SDS011;16713;52.916;12.834;2023-08-08T04:11:59;5.20;;;1.85;;
29824;SDS011;16713;52.916;12.834;2023-08-08T04:14:26;6.95;;;2.30;;
29824;SDS011;16713;52.916;12.834;2023-08-08T04:16:53;5.68;;;2.38;;
29824;SDS011;16713;52.916;12.834;2023-08-08T04:19:19;6.05;;;2.38;;
29824;SDS011;16713;52.916;12.834;2023-08-08T04:21:46;5.22;;;2.28;;
29824;SDS011;16713;52.916;12.834;2023-08-08T04:24:12;3.55;;;2.00;;
29824;SDS011;16713;52.916;12.834;2023-08-08T04:26:39;5.43;;;1.90;;
29824;SDS011;16713;52.916;12.834;2023-08-08T04:29:05;7.30;;;2.78;;
29824;SDS011;16713;52.916;12.834;2023-08-08T04:31:32;6.47;;;2.58;;
29824;SDS011;16713;52.916;12.834;2023-08-08T04:33:59;2.95;;;2.10;;
29824;SDS011;16713;52.916;12.834;2023-08-08T04:36:27;5.80;;;2.42;;
29824;SDS011;16713;52.916;12.834;2023-08-08T04:38:55;9.27;;;2.10;;
29824;SDS011;16713;52.916;12.834;2023-08-08T04:41:21;5.22;;;2.22;;
29824;SDS011;16713;52.916;12.834;2023-08-08T04:43:48;4.53;;;1.73;;
29824;SDS011;16713;52.916;12.834;2023-08-08T04:46:14;6.88;;;2.40;;
29824;SDS011;16713;52.916;12.834;2023-08-08T04:48:41;3.30;;;2.20;;
29824;SDS011;16713;52.916;12.834;2023-08-08T04:51:08;6.38;;;1.85;;
29824;SDS011;16713;52.916;12.834;2023-08-08T04:53:34;4.85;;;2.15;;
29824;SDS011;16713;52.916;12.834;2023-08-08T04:56:01;9.65;;;3.28;;
29824;SDS011;16713;52.916;12.834;2023-08-08T04:58:27;7.28;;;2.15;;
29824;SDS011;16713;52.916;12.834;2023-08-08T05:00:54;4.55;;;2.17;;
29824;SDS011;16713;52.916;12.834;2023-08-08T05:03:21;4.80;;;2.22;;
29824;SDS011;16713;52.916;12.834;2023-08-08T05:05:48;8.50;;;3.53;;
29824;SDS011;16713;52.916;12.834;2023-08-08T05:08:14;5.03;;;2.80;;
29824;SDS011;16713;52.916;12.834;2023-08-08T05:10:40;8.38;;;2.58;;
29824;SDS011;16713;52.916;12.834;2023-08-08T05:13:07;6.13;;;2.20;;
29824;SDS011;16713;52.916;12.834;2023-08-08T05:15:34;4.90;;;1.85;;
29824;SDS011;16713;52.916;12.834;2023-08-08T05:18:01;5.45;;;2.13;;
29824;SDS011;16713;52.916;12.834;2023-08-08T05:20:27;5.32;;;1.90;;
29824;SDS011;16713;52.916;12.834;2023-08-08T05:22:54;6.38;;;2.53;;
29824;SDS011;16713;52.916;12.834;2023-08-08T05:25:20;5.80;;;2.33;;
29824;SDS011;16713;52.916;12.834;2023-08-08T05:27:47;5.47;;;2.72;;
29824;SDS011;16713;52.916;12.834;2023-08-08T05:30:14;6.53;;;2.45;;
29824;SDS011;16713;52.916;12.834;2023-08-08T05:32:41;5.35;;;2.75;;
29824;SDS011;16713;52.916;12.834;2023-08-08T05:35:08;5.65;;;2.40;;
29824;SDS011;16713;52.916;12.834;2023-08-08T05:37:34;4.32;;;2.42;;
29824;SDS011;16713;52.916;12.834;2023-08-08T05:40:01;5.82;;;2.17;;
29824;SDS011;16713;52.916;12.834;2023-08-08T05:42:27;5.88;;;1.83;;
29824;SDS011;16713;52.916;12.834;2023-08-08T05:44:54;7.10;;;2.47;;
29824;SDS011;16713;52.916;12.834;2023-08-08T05:47:20;5.30;;;2.60;;
29824;SDS011;16713;52.916;12.834;2023-08-08T05:49:47;5.25;;;1.98;;
29824;SDS011;16713;52.916;12.834;2023-08-08T05:52:13;4.53;;;2.17;;
29824;SDS011;16713;52.916;12.834;2023-08-08T05:54:40;4.47;;;2.40;;
29824;SDS011;16713;52.916;12.834;2023-08-08T05:57:06;7.47;;;2.33;;
29824;SDS011;16713;52.916;12.834;2023-08-08T05:59:33;4.57;;;2.20;;
29824;SDS011;16713;52.916;12.834;2023-08-08T06:01:59;2.63;;;1.67;;
29824;SDS011;16713;52.916;12.834;2023-08-08T06:04:26;5.40;;;2.50;;
29824;SDS011;16713;52.916;12.834;2023-08-08T06:06:53;7.47;;;2.90;;
29824;SDS011;16713;52.916;12.834;2023-08-08T06:09:19;5.30;;;2.20;;
29824;SDS011;16713;52.916;12.834;2023-08-08T06:11:46;4.30;;;2.47;;
29824;SDS011;16713;52.916;12.834;2023-08-08T06:14:12;3.22;;;1.73;;
29824;SDS011;16713;52.916;12.834;2023-08-08T06:16:39;3.58;;;2.05;;
29824;SDS011;16713;52.916;12.834;2023-08-08T06:19:05;3.28;;;2.03;;
29824;SDS011;16713;52.916;12.834;2023-08-08T06:21:32;4.28;;;2.30;;
29824;SDS011;16713;52.916;12.834;2023-08-08T06:23:58;4.63;;;2.40;;
29824;SDS011;16713;52.916;12.834;2023-08-08T06:26:25;4.57;;;2.25;;
29824;SDS011;16713;52.916;12.834;2023-08-08T06:28:51;3.35;;;1.90;;
29824;SDS011;16713;52.916;12.834;2023-08-08T06:31:18;5.28;;;1.80;;
29824;SDS011;16713;52.916;12.834;2023-08-08T06:33:45;3.35;;;2.10;;
29824;SDS011;16713;52.916;12.834;2023-08-08T06:36:12;3.35;;;1.98;;
29824;SDS011;16713;52.916;12.834;2023-08-08T06:38:38;4.43;;;2.03;;
29824;SDS011;16713;52.916;12.834;2023-08-08T06:41:05;6.20;;;2.45;;
29824;SDS011;16713;52.916;12.834;2023-08-08T06:43:32;3.88;;;2.10;;
29824;SDS011;16713;52.916;12.834;2023-08-08T06:45:58;15.18;;;3.33;;
29824;SDS011;16713;52.916;12.834;2023-08-08T06:48:25;4.95;;;2.05;;
29824;SDS011;16713;52.916;12.834;2023-08-08T06:50:51;5.18;;;2.30;;
29824;SDS011;16713;52.916;12.834;2023-08-08T06:53:18;8.20;;;2.40;;
29824;SDS011;16713;52.916;12.834;2023-08-08T06:55:44;5.63;;;2.28;;
29824;SDS011;16713;52.916;12.834;2023-08-08T06:58:11;6.43;;;2.35;;
29824;SDS011;16713;52.916;12.834;2023-08-08T07:00:37;9.70;;;2.85;;
29824;SDS011;16713;52.916;12.834;2023-08-08T07:03:04;8.55;;;3.25;;
29824;SDS011;16713;52.916;12.834;2023-08-08T07:05:31;6.55;;;2.50;;
29824;SDS011;16713;52.916;12.834;2023-08-08T07:07:58;4.50;;;1.80;;
29824;SDS011;16713;52.916;12.834;2023-08-08T07:10:24;4.60;;;2.13;;
29824;SDS011;16713;52.916;12.834;2023-08-08T07:12:51;5.60;;;2.20;;
29824;SDS011;16713;52.916;12.834;2023-08-08T07:15:18;6.95;;;2.22;;
29824;SDS011;16713;52.916;12.834;2023-08-08T07:17:44;7.80;;;2.08;;
29824;SDS011;16713;52.916;12.834;2023-08-08T07:20:11;4.22;;;2.40;;
29824;SDS011;16713;52.916;12.834;2023-08-08T07:22:40;4.95;;;2.25;;
29824;SDS011;16713;52.916;12.834;2023-08-08T07:25:07;4.95;;;2.13;;
29824;SDS011;16713;52.916;12.834;2023-08-08T07:27:34;6.60;;;2.15;;
29824;SDS011;16713;52.916;12.834;2023-08-08T07:30:00;5.03;;;2.25;;
29824;SDS011;16713;52.916;12.834;2023-08-08T07:32:27;2.17;;;1.92;;
29824;SDS011;16713;52.916;12.834;2023-08-08T07:34:56;5.60;;;2.17;;
29824;SDS011;16713;52.916;12.834;2023-08-08T07:37:22;5.82;;;1.90;;
29824;SDS011;16713;52.916;12.834;2023-08-08T07:39:51;3.05;;;2.15;;
29824;SDS011;16713;52.916;12.834;2023-08-08T07:42:18;5.28;;;2.03;;
29824;SDS011;16713;52.916;12.834;2023-08-08T07:44:45;4.43;;;2.20;;
29824;SDS011;16713;52.916;12.834;2023-08-08T07:47:11;3.67;;;2.35;;
29824;SDS011;16713;52.916;12.834;2023-08-08T07:49:39;6.43;;;2.30;;
29824;SDS011;16713;52.916;12.834;2023-08-08T07:52:05;5.95;;;2.17;;
29824;SDS011;16713;52.916;12.834;2023-08-08T07:54:33;7.63;;;2.15;;
29824;SDS011;16713;52.916;12.834;2023-08-08T07:57:00;6.15;;;2.33;;
29824;SDS011;16713;52.916;12.834;2023-08-08T07:59:27;5.40;;;2.15;;
29824;SDS011;16713;52.916;12.834;2023-08-08T08:01:53;3.92;;;2.28;;
29824;SDS011;16713;52.916;12.834;2023-08-08T08:04:20;2.83;;;1.92;;
29824;SDS011;16713;52.916;12.834;2023-08-08T08:06:46;5.25;;;2.20;;
29824;SDS011;16713;52.916;12.834;2023-08-08T08:09:13;4.43;;;2.30;;
29824;SDS011;16713;52.916;12.834;2023-08-08T08:11:40;4.40;;;2.05;;
29824;SDS011;16713;52.916;12.834;2023-08-08T08:14:06;5.75;;;2.40;;
29824;SDS011;16713;52.916;12.834;2023-08-08T08:16:32;2.50;;;1.80;;
29824;SDS011;16713;52.916;12.834;2023-08-08T08:18:59;3.47;;;1.67;;
29824;SDS011;16713;52.916;12.834;2023-08-08T08:21:26;4.53;;;2.35;;
29824;SDS011;16713;52.916;12.834;2023-08-08T08:23:52;6.47;;;1.90;;
29824;SDS011;16713;52.916;12.834;2023-08-08T08:26:19;5.72;;;2.00;;
29824;SDS011;16713;52.916;12.834;2023-08-08T08:28:45;3.75;;;1.90;;
29824;SDS011;16713;52.916;12.834;2023-08-08T08:31:11;7.78;;;2.10;;
29824;SDS011;16713;52.916;12.834;2023-08-08T08:33:38;5.20;;;1.92;;
29824;SDS011;16713;52.916;12.834;2023-08-08T08:36:05;4.50;;;2.22;;
29824;SDS011;16713;52.916;12.834;2023-08-08T08:38:31;5.00;;;2.00;;
29824;SDS011;16713;52.916;12.834;2023-08-08T08:40:58;5.28;;;1.85;;
29824;SDS011;16713;52.916;12.834;2023-08-08T08:43:25;7.97;;;1.95;;
29824;SDS011;16713;52.916;12.834;2023-08-08T08:45:52;8.10;;;2.00;;
29824;SDS011;16713;52.916;12.834;2023-08-08T08:48:22;4.18;;;2.10;;
29824;SDS011;16713;52.916;12.834;2023-08-08T08:50:49;4.15;;;1.73;;
29824;SDS011;16713;52.916;12.834;2023-08-08T08:53:15;7.03;;;2.40;;
29824;SDS011;16713;52.916;12.834;2023-08-08T08:55:43;5.43;;;1.90;;
29824;SDS011;16713;52.916;12.834;2023-08-08T08:58:11;5.05;;;1.80;;
29824;SDS011;16713;52.916;12.834;2023-08-08T09:00:43;2.97;;;2.10;;
29824;SDS011;16713;52.916;12.834;2023-08-08T09:03:12;3.65;;;2.25;;
29824;SDS011;16713;52.916;12.834;2023-08-08T09:05:39;6.93;;;2.13;;
29824;SDS011;16713;52.916;12.834;2023-08-08T09:08:08;5.50;;;1.77;;
29824;SDS011;16713;52.916;12.834;2023-08-08T09:10:35;5.70;;;2.17;;
29824;SDS011;16713;52.916;12.834;2023-08-08T09:13:01;5.57;;;1.95;;
29824;SDS011;16713;52.916;12.834;2023-08-08T09:15:31;6.32;;;2.05;;
29824;SDS011;16713;52.916;12.834;2023-08-08T09:18:00;5.45;;;1.60;;
29824;SDS011;16713;52.916;12.834;2023-08-08T09:20:27;10.18;;;1.95;;
29824;SDS011;16713;52.916;12.834;2023-08-08T09:22:57;3.55;;;1.88;;
29824;SDS011;16713;52.916;12.834;2023-08-08T09:25:23;3.83;;;1.90;;
29824;SDS011;16713;52.916;12.834;2023-08-08T09:27:51;7.07;;;2.92;;
29824;SDS011;16713;52.916;12.834;2023-08-08T09:30:21;4.03;;;1.83;;
29824;SDS011;16713;52.916;12.834;2023-08-08T09:32:48;4.55;;;1.90;;
29824;SDS011;16713;52.916;12.834;2023-08-08T09:35:15;3.50;;;1.63;;
29824;SDS011;16713;52.916;12.834;2023-08-08T09:37:42;3.15;;;1.85;;
29824;SDS011;16713;52.916;12.834;2023-08-08T09:40:08;3.42;;;1.70;;
29824;SDS011;16713;52.916;12.834;2023-08-08T09:42:39;3.50;;;2.35;;
29824;SDS011;16713;52.916;12.834;2023-08-08T09:45:07;3.25;;;1.77;;
29824;SDS011;16713;52.916;12.834;2023-08-08T09:47:35;3.42;;;1.70;;
29824;SDS011;16713;52.916;12.834;2023-08-08T09:50:02;5.22;;;1.98;;
29824;SDS011;16713;52.916;12.834;2023-08-08T09:52:35;2.55;;;1.45;;
29824;SDS011;16713;52.916;12.834;2023-08-08T09:55:05;3.90;;;1.60;;
29824;SDS011;16713;52.916;12.834;2023-08-08T09:57:32;4.80;;;2.30;;
29824;SDS011;16713;52.916;12.834;2023-08-08T09:59:59;3.50;;;1.48;;
29824;SDS011;16713;52.916;12.834;2023-08-08T10:02:27;3.45;;;1.65;;
29824;SDS011;16713;52.916;12.834;2023-08-08T10:04:55;4.32;;;1.77;;
29824;SDS011;16713;52.916;12.834;2023-08-08T10:07:24;5.13;;;1.77;;
29824;SDS011;16713;52.916;12.834;2023-08-08T10:09:51;5.80;;;1.60;;
29824;SDS011;16713;52.916;12.834;2023-08-08T10:12:18;3.20;;;1.95;;
29824;SDS011;16713;52.916;12.834;2023-08-08T10:14:45;4.93;;;2.10;;
29824;SDS011;16713;52.916;12.834;2023-08-08T10:17:15;9.00;;;2.60;;
29824;SDS011;16713;52.916;12.834;2023-08-08T10:19:54;5.38;;;1.77;;
29824;SDS011;16713;52.916;12.834;2023-08-08T10:22:21;2.42;;;1.70;;
29824;SDS011;16713;52.916;12.834;2023-08-08T10:24:53;4.35;;;2.17;;
29824;SDS011;16713;52.916;12.834;2023-08-08T10:27:33;3.42;;;1.80;;
29824;SDS011;16713;52.916;12.834;2023-08-08T10:30:02;5.72;;;2.40;;
29824;SDS011;16713;52.916;12.834;2023-08-08T10:32:37;6.57;;;3.03;;
29824;SDS011;16713;52.916;12.834;2023-08-08T10:35:05;4.95;;;1.98;;
29824;SDS011;16713;52.916;12.834;2023-08-08T10:37:34;3.30;;;1.90;;
29824;SDS011;16713;52.916;12.834;2023-08-08T10:40:03;4.05;;;2.00;;
29824;SDS011;16713;52.916;12.834;2023-08-08T10:42:43;5.65;;;2.50;;
29824;SDS011;16713;52.916;12.834;2023-08-08T10:45:12;8.48;;;2.47;;
29824;SDS011;16713;52.916;12.834;2023-08-08T10:47:41;3.30;;;2.17;;
29824;SDS011;16713;52.916;12.834;2023-08-08T10:50:15;8.35;;;2.42;;
29824;SDS011;16713;52.916;12.834;2023-08-08T10:52:52;11.65;;;2.20;;
29824;SDS011;16713;52.916;12.834;2023-08-08T10:58:09;5.63;;;1.70;;
29824;SDS011;16713;52.916;12.834;2023-08-08T11:00:39;8.13;;;3.13;;
29824;SDS011;16713;52.916;12.834;2023-08-08T11:03:07;5.30;;;1.50;;
29824;SDS011;16713;52.916;12.834;2023-08-08T11:05:35;6.43;;;2.10;;
29824;SDS011;16713;52.916;12.834;2023-08-08T11:08:04;5.10;;;1.98;;
29824;SDS011;16713;52.916;12.834;2023-08-08T11:10:38;2.78;;;1.50;;
29824;SDS011;16713;52.916;12.834;2023-08-08T11:13:06;3.55;;;1.35;;
29824;SDS011;16713;52.916;12.834;2023-08-08T11:15:34;7.10;;;1.77;;
29824;SDS011;16713;52.916;12.834;2023-08-08T11:18:02;1.88;;;1.67;;
29824;SDS011;16713;52.916;12.834;2023-08-08T11:20:33;2.17;;;1.50;;
29824;SDS011;16713;52.916;12.834;2023-08-08T11:25:30;1.48;;;1.17;;
29824;SDS011;16713;52.916;12.834;2023-08-08T11:27:57;2.22;;;1.08;;
29824;SDS011;16713;52.916;12.834;2023-08-08T11:30:27;4.18;;;1.63;;
29824;SDS011;16713;52.916;12.834;2023-08-08T11:32:55;4.63;;;1.47;;
29824;SDS011;16713;52.916;12.834;2023-08-08T11:35:25;5.05;;;2.20;;
29824;SDS011;16713;52.916;12.834;2023-08-08T11:37:52;5.00;;;1.45;;
29824;SDS011;16713;52.916;12.834;2023-08-08T11:40:19;5.32;;;1.60;;
29824;SDS011;16713;52.916;12.834;2023-08-08T11:42:47;4.22;;;1.40;;
29824;SDS011;16713;52.916;12.834;2023-08-08T11:45:15;2.63;;;1.55;;
29824;SDS011;16713;52.916;12.834;2023-08-08T11:47:42;3.50;;;1.75;;
29824;SDS011;16713;52.916;12.834;2023-08-08T11:50:10;3.03;;;1.85;;
29824;SDS011;16713;52.916;12.834;2023-08-08T11:52:40;5.20;;;1.90;;
29824;SDS011;16713;52.916;12.834;2023-08-08T11:55:08;2.63;;;1.42;;
29824;SDS011;16713;52.916;12.834;2023-08-08T11:57:36;1.83;;;1.10;;
29824;SDS011;16713;52.916;12.834;2023-08-08T12:00:06;1.95;;;0.80;;
29824;SDS011;16713;52.916;12.834;2023-08-08T12:02:35;1.20;;;0.80;;
29824;SDS011;16713;52.916;12.834;2023-08-08T12:05:05;3.75;;;1.02;;
29824;SDS011;16713;52.916;12.834;2023-08-08T12:07:39;2.70;;;0.80;;
29824;SDS011;16713;52.916;12.834;2023-08-08T12:10:13;6.43;;;1.27;;
29824;SDS011;16713;52.916;12.834;2023-08-08T12:12:52;2.30;;;0.68;;
29824;SDS011;16713;52.916;12.834;2023-08-08T12:15:21;1.90;;;0.70;;
29824;SDS011;16713;52.916;12.834;2023-08-08T12:17:47;1.17;;;1.08;;
29824;SDS011;16713;52.916;12.834;2023-08-08T12:20:15;1.48;;;1.20;;
29824;SDS011;16713;52.916;12.834;2023-08-08T12:22:44;4.40;;;1.27;;
29824;SDS011;16713;52.916;12.834;2023-08-08T12:25:11;2.42;;;1.33;;
29824;SDS011;16713;52.916;12.834;2023-08-08T12:27:38;3.97;;;1.38;;
29824;SDS011;16713;52.916;12.834;2023-08-08T12:30:06;5.72;;;1.00;;
29824;SDS011;16713;52.916;12.834;2023-08-08T12:32:33;1.50;;;1.00;;
29824;SDS011;16713;52.916;12.834;2023-08-08T12:35:00;2.03;;;1.25;;
29824;SDS011;16713;52.916;12.834;2023-08-08T12:37:26;4.57;;;0.85;;
29824;SDS011;16713;52.916;12.834;2023-08-08T12:39:53;2.33;;;0.90;;
29824;SDS011;16713;52.916;12.834;2023-08-08T12:42:19;3.47;;;1.15;;
29824;SDS011;16713;52.916;12.834;2023-08-08T12:44:46;2.35;;;1.33;;
29824;SDS011;16713;52.916;12.834;2023-08-08T12:47:13;2.22;;;1.00;;
29824;SDS011;16713;52.916;12.834;2023-08-08T12:49:41;3.30;;;1.42;;
29824;SDS011;16713;52.916;12.834;2023-08-08T12:52:07;2.45;;;0.93;;
29824;SDS011;16713;52.916;12.834;2023-08-08T12:54:34;4.45;;;2.25;;
29824;SDS011;16713;52.916;12.834;2023-08-08T12:57:02;7.47;;;1.52;;
29824;SDS011;16713;52.916;12.834;2023-08-08T12:59:29;4.45;;;1.30;;
29824;SDS011;16713;52.916;12.834;2023-08-08T13:01:56;2.30;;;1.10;;
29824;SDS011;16713;52.916;12.834;2023-08-08T13:04:22;2.13;;;1.17;;
29824;SDS011;16713;52.916;12.834;2023-08-08T13:06:49;1.73;;;1.02;;
29824;SDS011;16713;52.916;12.834;2023-08-08T13:09:15;2.63;;;1.10;;
29824;SDS011;16713;52.916;12.834;2023-08-08T13:11:42;3.58;;;1.50;;
29824;SDS011;16713;52.916;12.834;2023-08-08T13:14:08;3.50;;;1.85;;
29824;SDS011;16713;52.916;12.834;2023-08-08T13:16:35;3.08;;;1.38;;
29824;SDS011;16713;52.916;12.834;2023-08-08T13:19:02;3.00;;;1.20;;
29824;SDS011;16713;52.916;12.834;2023-08-08T13:21:29;3.42;;;1.20;;
29824;SDS011;16713;52.916;12.834;2023-08-08T13:23:56;2.08;;;1.10;;
29824;SDS011;16713;52.916;12.834;2023-08-08T13:26:23;2.80;;;1.33;;
29824;SDS011;16713;52.916;12.834;2023-08-08T13:28:50;1.38;;;0.70;;
29824;SDS011;16713;52.916;12.834;2023-08-08T13:31:16;2.65;;;1.20;;
29824;SDS011;16713;52.916;12.834;2023-08-08T13:33:43;3.53;;;1.33;;
29824;SDS011;16713;52.916;12.834;2023-08-08T13:36:09;2.45;;;1.27;;
29824;SDS011;16713;52.916;12.834;2023-08-08T13:38:36;3.55;;;1.30;;
29824;SDS011;16713;52.916;12.834;2023-08-08T13:41:02;2.42;;;1.15;;
29824;SDS011;16713;52.916;12.834;2023-08-08T13:43:29;2.97;;;1.08;;
29824;SDS011;16713;52.916;12.834;2023-08-08T13:45:56;1.77;;;0.95;;
29824;SDS011;16713;52.916;12.834;2023-08-08T13:48:23;2.67;;;1.40;;
29824;SDS011;16713;52.916;12.834;2023-08-08T13:50:49;1.48;;;1.25;;
29824;SDS011;16713;52.916;12.834;2023-08-08T13:53:16;4.60;;;1.23;;
29824;SDS011;16713;52.916;12.834;2023-08-08T13:55:43;1.70;;;1.20;;
29824;SDS011;16713;52.916;12.834;2023-08-08T13:58:11;2.45;;;1.05;;
29824;SDS011;16713;52.916;12.834;2023-08-08T14:00:37;1.58;;;1.00;;
29824;SDS011;16713;52.916;12.834;2023-08-08T14:03:04;2.83;;;0.98;;
29824;SDS011;16713;52.916;12.834;2023-08-08T14:05:31;2.53;;;0.98;;
29824;SDS011;16713;52.916;12.834;2023-08-08T14:07:58;2.03;;;1.00;;
29824;SDS011;16713;52.916;12.834;2023-08-08T14:10:24;1.10;;;0.93;;
29824;SDS011;16713;52.916;12.834;2023-08-08T14:12:51;1.33;;;0.88;;
29824;SDS011;16713;52.916;12.834;2023-08-08T14:15:20;3.95;;;0.93;;
29824;SDS011;16713;52.916;12.834;2023-08-08T14:17:47;1.58;;;1.08;;
29824;SDS011;16713;52.916;12.834;2023-08-08T14:20:13;1.77;;;1.10;;
29824;SDS011;16713;52.916;12.834;2023-08-08T14:22:43;1.90;;;1.00;;
29824;SDS011;16713;52.916;12.834;2023-08-08T14:25:13;2.90;;;0.93;;
29824;SDS011;16713;52.916;12.834;2023-08-08T14:27:41;1.20;;;0.90;;
29824;SDS011;16713;52.916;12.834;2023-08-08T14:30:07;2.10;;;0.88;;
29824;SDS011;16713;52.916;12.834;2023-08-08T14:32:34;2.28;;;1.10;;
29824;SDS011;16713;52.916;12.834;2023-08-08T14:35:02;2.35;;;1.10;;
29824;SDS011;16713;52.916;12.834;2023-08-08T14:37:31;3.15;;;1.08;;
29824;SDS011;16713;52.916;12.834;2023-08-08T14:39:58;2.40;;;1.00;;
29824;SDS011;16713;52.916;12.834;2023-08-08T14:42:24;2.13;;;1.10;;